createdAt,value
2023-01-29T00:00:32.129Z,100357.41
2023-01-29T00:01:41.681Z,100354.02
2023-01-29T00:02:51.353Z,100345.87
2023-01-29T00:04:00.038Z,100348.44
2023-01-29T00:05:26.611Z,100347.67
2023-01-29T00:06:23.569Z,100338.03
2023-01-29T00:07:32.577Z,100347.92
2023-01-29T00:08:41.167Z,100356.72
2023-01-29T00:09:50.805Z,100362.06
2023-01-29T00:11:03.121Z,100358.48
2023-01-29T00:12:11.642Z,100358.31
2023-01-29T00:13:20.676Z,100359.09
2023-01-29T00:14:30.203Z,100360.83
2023-01-29T00:15:39.936Z,100359.28
2023-01-29T00:16:48.623Z,100361.08
2023-01-29T00:17:57.372Z,100366.06
2023-01-29T00:19:06.660Z,100358.98
2023-01-29T00:20:17.154Z,100359.91
2023-01-29T00:21:25.961Z,100359.87
2023-01-29T00:22:34.979Z,100358.24
2023-01-29T00:23:44.531Z,100360.97
2023-01-29T00:24:53.387Z,100367.93
2023-01-29T00:26:02.568Z,100358.31
2023-01-29T00:27:12.857Z,100367.80
2023-01-29T00:28:21.923Z,100368.53
2023-01-29T00:29:31.442Z,100356.31
2023-01-29T00:31:55.923Z,100360.55
2023-01-29T00:33:05.809Z,100359.89
2023-01-29T00:34:14.868Z,100359.05
2023-01-29T00:35:23.500Z,100354.63
2023-01-29T00:36:33.514Z,100366.30
2023-01-29T00:37:50.795Z,100365.31
2023-01-29T00:39:02.476Z,100362.50
2023-01-29T00:40:13.505Z,100362.52
2023-01-29T00:41:41.023Z,100366.85
2023-01-29T00:43:09.409Z,100371.30
2023-01-29T00:44:37.699Z,100365.92
2023-01-29T00:45:46.902Z,100365.89
2023-01-29T00:46:56.020Z,100373.80
2023-01-29T00:48:06.538Z,100373.05
2023-01-29T00:49:15.493Z,100368.39
2023-01-29T00:50:25.431Z,100367.55
2023-01-29T00:51:35.373Z,100366.84
2023-01-29T00:52:45.002Z,100367.74
2023-01-29T00:55:13.887Z,100366.96
2023-01-29T00:56:22.383Z,100368.95
2023-01-29T00:59:08.805Z,100363.60
2023-01-29T01:00:19.562Z,100360.44
2023-01-29T01:01:47.528Z,100358.48
2023-01-29T01:03:05.981Z,100365.39
2023-01-29T01:04:15.798Z,100360.44
2023-01-29T01:05:24.868Z,100365.73
2023-01-29T01:06:35.969Z,100359.50
2023-01-29T01:07:46.919Z,100353.10
2023-01-29T01:09:14.075Z,100361.02
2023-01-29T01:11:44.026Z,100346.73
2023-01-29T01:13:02.001Z,100353.80
2023-01-29T01:14:12.454Z,100353.05
2023-01-29T01:15:25.547Z,100355.73
2023-01-29T01:16:34.916Z,100358.38
2023-01-29T01:17:43.676Z,100359.27
2023-01-29T01:18:52.799Z,100358.35
2023-01-29T01:20:02.184Z,100353.07
2023-01-29T01:21:11.273Z,100366.14
2023-01-29T01:22:20.698Z,100367.03
2023-01-29T01:23:30.092Z,100368.75
2023-01-29T01:24:39.878Z,100365.95
2023-01-29T01:25:48.742Z,100373.05
2023-01-29T01:26:58.418Z,100362.41
2023-01-29T01:28:10.233Z,100362.18
2023-01-29T01:29:19.993Z,100362.18
2023-01-29T01:30:29.446Z,100367.22
2023-01-29T01:31:39.225Z,100365.47
2023-01-29T01:32:50.488Z,100361.80
2023-01-29T01:34:00.127Z,100358.41
2023-01-29T01:36:28.785Z,100361.05
2023-01-29T01:37:38.754Z,100360.64
2023-01-29T01:38:48.558Z,100359.78
2023-01-29T01:39:58.307Z,100357.43
2023-01-29T01:41:06.911Z,100363.77
2023-01-29T01:42:16.519Z,100363.76
2023-01-29T01:43:25.054Z,100366.61
2023-01-29T01:44:55.177Z,100361.42
2023-01-29T01:46:04.349Z,100367.39
2023-01-29T01:47:15.756Z,100360.29
2023-01-29T01:48:26.941Z,100360.97
2023-01-29T01:49:36.761Z,100366.36
2023-01-29T01:52:12.635Z,100356.28
2023-01-29T01:53:28.136Z,100359.59
2023-01-29T01:54:37.908Z,100360.44
2023-01-29T01:55:51.089Z,100356.85
2023-01-29T01:57:14.236Z,100363.11
2023-01-29T01:58:27.613Z,100364.19
2023-01-29T01:59:41.126Z,100357.17
2023-01-29T05:38:22.416Z,100374.99
2023-01-29T05:39:31.956Z,100381.11
2023-01-29T05:40:42.829Z,100389.79
2023-01-29T05:41:51.222Z,100390.58
2023-01-29T05:44:15.624Z,100374.32
2023-01-29T05:45:25.681Z,100382.14
2023-01-29T05:46:34.530Z,100382.80
2023-01-29T05:47:43.979Z,100377.34
2023-01-29T05:48:53.011Z,100377.13
2023-01-29T05:50:01.547Z,100379.55
2023-01-29T05:51:11.314Z,100375.84
2023-01-29T05:52:19.815Z,100385.28
2023-01-29T05:53:29.420Z,100377.20
2023-01-29T05:54:38.015Z,100377.00
2023-01-29T05:55:47.659Z,100377.73
2023-01-29T05:56:56.976Z,100384.67
2023-01-29T05:58:06.838Z,100376.55
2023-01-29T05:59:16.425Z,100373.77
2023-01-29T06:00:26.481Z,100379.81
2023-01-29T06:02:50.834Z,100366.94
2023-01-29T06:03:59.697Z,100369.77
2023-01-29T06:05:09.005Z,100373.34
2023-01-29T06:06:18.905Z,100376.09
2023-01-29T06:07:30.194Z,100385.09
2023-01-29T06:08:39.896Z,100381.73
2023-01-29T06:09:48.672Z,100383.61
2023-01-29T06:10:57.983Z,100378.42
2023-01-29T06:12:07.462Z,100383.80
2023-01-29T06:13:17.059Z,100383.92
2023-01-29T06:14:28.481Z,100383.09
2023-01-29T06:15:40.376Z,100386.72
2023-01-29T06:16:49.964Z,100391.18
2023-01-29T06:17:58.503Z,100393.01
2023-01-29T06:19:07.284Z,100394.81
2023-01-29T06:21:33.884Z,100379.81
2023-01-29T06:22:42.796Z,100384.27
2023-01-29T06:23:55.655Z,100386.77
2023-01-29T06:25:06.370Z,100380.45
2023-01-29T06:26:16.965Z,100384.64
2023-01-29T06:27:26.765Z,100378.30
2023-01-29T06:28:37.686Z,100380.85
2023-01-29T06:31:22.019Z,100381.53
2023-01-29T06:32:14.002Z,100383.52
2023-01-29T06:34:38.877Z,100389.56
2023-01-29T06:35:47.385Z,100390.69
2023-01-29T06:36:56.028Z,100386.36
2023-01-29T06:38:04.543Z,100387.27
2023-01-29T06:39:14.544Z,100393.47
2023-01-29T06:40:24.582Z,100390.02
2023-01-29T06:41:34.110Z,100389.24
2023-01-29T06:42:46.066Z,100391.05
2023-01-29T06:43:54.578Z,100391.08
2023-01-29T06:45:03.975Z,100391.99
2023-01-29T06:46:14.155Z,100384.97
2023-01-29T06:47:24.618Z,100387.66
2023-01-29T06:48:34.466Z,100398.17
2023-01-29T06:51:19.091Z,100382.86
2023-01-29T06:52:28.493Z,100389.14
2023-01-29T06:53:39.472Z,100385.61
2023-01-29T06:54:53.028Z,100386.33
2023-01-29T06:57:18.027Z,100385.23
2023-01-29T06:59:42.515Z,100387.22
2023-01-29T07:00:52.358Z,100391.80
2023-01-29T07:03:15.991Z,100385.52
2023-01-29T07:04:25.445Z,100392.72
2023-01-29T07:05:34.334Z,100393.59
2023-01-29T07:06:43.731Z,100390.16
2023-01-29T07:07:52.405Z,100391.83
2023-01-29T07:09:03.762Z,100388.16
2023-01-29T07:10:12.390Z,100386.30
2023-01-29T07:11:21.699Z,100385.33
2023-01-29T07:12:30.216Z,100379.02
2023-01-29T07:13:39.222Z,100385.09
2023-01-29T07:14:48.822Z,100378.95
2023-01-29T07:17:16.916Z,100377.84
2023-01-29T07:18:27.691Z,100378.95
2023-01-29T07:19:37.084Z,100377.27
2023-01-29T07:20:46.371Z,100380.85
2023-01-29T07:21:56.861Z,100377.20
2023-01-29T07:23:07.239Z,100378.03
2023-01-29T07:24:16.302Z,100373.59
2023-01-29T07:26:40.244Z,100367.77
2023-01-29T07:27:49.523Z,100373.20
2023-01-29T07:28:58.642Z,100371.48
2023-01-29T07:31:24.175Z,100374.76
2023-01-29T07:32:33.170Z,100376.77
2023-01-29T07:35:00.495Z,100371.36
2023-01-29T07:36:10.842Z,100378.58
2023-01-29T07:37:19.420Z,100389.16
2023-01-29T07:40:04.685Z,100377.44
2023-01-29T07:41:14.188Z,100379.18
2023-01-29T07:42:26.024Z,100379.80
2023-01-29T07:43:34.578Z,100374.32
2023-01-29T07:44:47.026Z,100368.90
2023-01-29T07:45:56.939Z,100372.40
2023-01-29T07:47:06.447Z,100374.25
2023-01-29T07:49:31.585Z,100371.47
2023-01-29T07:50:41.680Z,100374.45
2023-01-29T07:51:51.466Z,100372.78
2023-01-29T07:54:17.079Z,100362.94
2023-01-29T07:56:44.182Z,100370.07
2023-01-29T07:58:00.898Z,100374.80
2023-01-29T07:59:10.439Z,100375.55
2023-01-29T08:00:21.193Z,100370.96
2023-01-29T08:02:45.578Z,100367.72
2023-01-29T08:03:54.233Z,100373.90
2023-01-29T08:05:04.717Z,100374.50
2023-01-29T08:07:30.015Z,100372.26
2023-01-29T08:08:39.131Z,100370.06
2023-01-29T08:09:48.689Z,100370.89
2023-01-29T08:12:14.824Z,100365.41
2023-01-29T08:14:58.662Z,100371.52
2023-01-29T08:17:23.930Z,100368.25
2023-01-29T08:18:32.844Z,100379.03
2023-01-29T08:19:42.507Z,100385.06
2023-01-29T08:20:52.798Z,100376.98
2023-01-29T08:22:02.301Z,100380.48
2023-01-29T08:23:17.075Z,100376.98
2023-01-29T08:24:31.362Z,100376.88
2023-01-29T08:25:36.903Z,100378.48
2023-01-29T08:28:00.968Z,100379.95
2023-01-29T08:29:12.278Z,100386.28
2023-01-29T08:30:22.073Z,100386.98
2023-01-29T08:31:31.889Z,100378.90
2023-01-29T08:32:40.818Z,100388.54
2023-01-29T08:35:05.895Z,100385.81
2023-01-29T08:37:30.508Z,100393.86
2023-01-29T08:38:39.852Z,100394.17
2023-01-29T08:39:49.514Z,100391.57
2023-01-29T08:40:59.103Z,100388.11
2023-01-29T08:43:23.510Z,100389.75
2023-01-29T08:44:33.053Z,100387.25
2023-01-29T08:45:44.215Z,100386.21
2023-01-29T08:46:53.308Z,100385.27
2023-01-29T08:48:03.481Z,100382.48
2023-01-29T08:49:13.433Z,100382.28
2023-01-29T08:51:37.851Z,100374.83
2023-01-29T08:52:46.849Z,100378.66
2023-01-29T08:53:55.458Z,100380.49
2023-01-29T08:55:05.440Z,100371.63
2023-01-29T08:56:16.088Z,100377.80
2023-01-29T08:57:25.208Z,100377.92
2023-01-29T08:58:33.887Z,100380.69
2023-01-29T08:59:42.537Z,100377.92
2023-01-29T09:00:52.240Z,100376.02
2023-01-29T09:02:00.813Z,100372.44
2023-01-29T09:03:09.508Z,100376.88
2023-01-29T09:04:19.153Z,100376.91
2023-01-29T09:05:28.170Z,100372.55
2023-01-29T09:06:40.760Z,100370.81
2023-01-29T09:09:04.470Z,100365.31
2023-01-29T09:10:13.943Z,100375.08
2023-01-29T09:11:23.037Z,100363.32
2023-01-29T09:12:33.402Z,100367.58
2023-01-29T09:13:41.895Z,100369.04
2023-01-29T09:14:51.769Z,100364.38
2023-01-29T09:16:04.002Z,100358.11
2023-01-29T09:17:12.497Z,100363.48
2023-01-29T09:18:21.405Z,100357.34
2023-01-29T09:19:31.004Z,100359.27
2023-01-29T09:20:40.096Z,100355.81
2023-01-29T09:21:49.239Z,100359.40
2023-01-29T09:22:58.836Z,100351.63
2023-01-29T09:24:09.704Z,100356.02
2023-01-29T09:25:18.615Z,100360.38
2023-01-29T09:26:28.322Z,100348.05
2023-01-29T09:28:53.806Z,100352.95
2023-01-29T09:31:21.792Z,100346.17
2023-01-29T09:32:52.614Z,100345.42
2023-01-29T09:33:42.007Z,100352.55
2023-01-29T09:36:26.162Z,100343.70
2023-01-29T09:37:36.150Z,100347.52
2023-01-29T09:38:44.760Z,100348.52
2023-01-29T09:39:54.271Z,100349.45
2023-01-29T09:41:17.044Z,100342.59
2023-01-29T09:43:54.160Z,100335.33
2023-01-29T09:46:29.290Z,100338.14
2023-01-29T09:47:37.859Z,100341.91
2023-01-29T09:48:48.154Z,100335.90
2023-01-29T09:50:01.672Z,100344.72
2023-01-29T09:51:23.348Z,100337.64
2023-01-29T09:54:04.399Z,100328.90
2023-01-29T09:56:51.701Z,100327.97
2023-01-29T09:59:26.724Z,100322.03
2023-01-29T10:02:26.174Z,100325.19
2023-01-29T10:03:55.871Z,100326.04
2023-01-29T10:05:29.659Z,100322.05
2023-01-29T10:07:11.866Z,100326.17
2023-01-29T10:08:39.061Z,100324.91
2023-01-29T10:10:01.857Z,100324.52
2023-01-29T12:11:31.882Z,100226.48
2023-01-29T12:12:46.537Z,100230.87
2023-01-29T12:13:59.081Z,100225.34
2023-01-29T12:20:01.562Z,100223.17
2023-01-29T12:23:00.580Z,100221.30
2023-01-29T12:24:28.163Z,100225.58
2023-01-29T12:25:44.260Z,100225.11
2023-01-29T12:26:57.171Z,100220.25
2023-01-29T12:30:03.331Z,100219.28
2023-01-29T12:31:22.051Z,100225.02
2023-01-29T14:27:49.235Z,100192.20
2023-01-29T14:29:18.809Z,100192.33
2023-01-29T14:31:57.583Z,100188.88
2023-01-29T14:34:37.871Z,100192.33
2023-01-29T14:35:52.163Z,100197.47
2023-01-29T14:37:29.466Z,100194.30
2023-01-29T14:38:42.071Z,100199.27
2023-01-29T14:39:56.382Z,100196.46
2023-01-29T14:43:07.810Z,100190.00
2023-01-29T14:44:46.548Z,100195.73
2023-01-29T14:45:55.072Z,100205.52
2023-01-29T14:47:04.486Z,100200.39
2023-01-29T14:50:04.177Z,100202.09
2023-01-29T14:51:17.137Z,100202.45
2023-01-29T14:52:43.781Z,100209.54
2023-01-29T14:56:39.921Z,100211.19
2023-01-29T14:57:50.525Z,100214.19
2023-01-29T14:59:03.990Z,100213.35
2023-01-29T15:01:59.104Z,100212.28
2023-01-29T15:03:20.142Z,100212.64
2023-01-29T15:05:48.994Z,100212.45
2023-01-29T15:08:31.716Z,100209.84
2023-01-29T15:09:50.459Z,100217.30
2023-01-29T15:12:58.388Z,100213.34
2023-01-29T15:14:27.403Z,100218.94
2023-01-29T15:17:17.681Z,100213.34
2023-01-29T15:18:39.662Z,100219.80
2023-01-29T15:21:14.055Z,100212.85
2023-01-29T15:22:25.880Z,100210.45
2023-01-29T15:23:34.678Z,100215.84
2023-01-29T15:26:05.748Z,100212.00
2023-01-29T15:27:20.235Z,100220.23
2023-01-29T15:29:53.976Z,100217.20
2023-01-29T15:31:07.269Z,100218.40
2023-01-29T15:33:43.594Z,100221.48
2023-01-29T15:36:19.647Z,100217.09
2023-01-29T15:37:34.699Z,100222.68
2023-01-29T15:40:00.724Z,100211.64
2023-01-29T15:41:20.152Z,100219.89
2023-01-29T15:45:25.779Z,100214.34
2023-01-29T15:49:14.037Z,100216.09
2023-01-29T15:50:24.310Z,100223.44
2023-01-29T15:51:33.583Z,100227.03
2023-01-29T15:54:00.590Z,100220.44
2023-01-29T15:55:13.579Z,100223.44
2023-01-29T15:56:29.540Z,100224.34
2023-01-29T15:57:42.742Z,100220.89
2023-01-29T15:58:52.388Z,100229.64
2023-01-29T16:01:18.508Z,100224.88
2023-01-29T16:02:40.183Z,100222.59
2023-01-29T16:03:51.465Z,100227.23
2023-01-29T16:05:01.133Z,100221.94
2023-01-29T16:06:11.389Z,100222.78
2023-01-29T16:07:23.283Z,100218.38
2023-01-29T16:08:34.200Z,100228.08
2023-01-29T16:09:43.736Z,100217.55
2023-01-29T16:10:59.104Z,100219.38
2023-01-29T16:12:11.766Z,100217.59
2023-01-29T16:14:40.412Z,100208.70
2023-01-29T16:17:33.259Z,100211.44
2023-01-29T16:18:59.635Z,100218.02
2023-01-29T16:20:01.552Z,100218.07
2023-01-29T16:21:36.379Z,100218.07
2023-01-29T16:22:46.181Z,100218.07
2023-01-29T16:25:17.319Z,100217.03
2023-01-29T16:26:35.784Z,100222.70
2023-01-29T16:27:45.091Z,100223.65
2023-01-29T16:28:55.567Z,100222.75
2023-01-29T16:30:07.144Z,100223.55
2023-01-29T16:31:26.392Z,100217.41
2023-01-29T16:32:35.799Z,100227.15
2023-01-29T16:33:46.161Z,100227.11
2023-01-29T16:34:59.969Z,100223.60
2023-01-29T16:37:36.761Z,100219.67
2023-01-29T16:39:01.021Z,100229.64
2023-01-29T16:43:28.502Z,100223.17
2023-01-29T16:44:38.832Z,100237.63
2023-01-29T16:47:32.249Z,100228.47
2023-01-29T16:48:41.416Z,100224.46
2023-01-29T16:49:53.308Z,100231.41
2023-01-29T16:51:14.303Z,100230.64
2023-01-29T16:52:28.327Z,100227.15
2023-01-29T16:53:37.822Z,100229.80
2023-01-29T16:54:47.259Z,100229.75
2023-01-29T16:56:05.607Z,100231.54
2023-01-29T16:58:34.758Z,100222.43
2023-01-29T16:59:43.863Z,100229.75
2023-01-29T17:01:10.862Z,100227.11
2023-01-29T17:02:33.742Z,100227.15
2023-01-29T17:05:01.425Z,100230.45
2023-01-29T17:07:30.145Z,100224.27
2023-01-29T17:08:42.374Z,100229.93
2023-01-29T17:09:55.657Z,100229.03
2023-01-29T17:11:07.707Z,100233.43
2023-01-29T17:12:20.007Z,100226.38
2023-01-29T17:15:00.130Z,100233.14
2023-01-29T17:16:18.137Z,100233.43
2023-01-29T17:17:34.080Z,100235.17
2023-01-29T17:18:43.686Z,100234.27
2023-01-29T17:19:52.669Z,100225.50
2023-01-29T17:21:01.794Z,100226.00
2023-01-29T17:23:28.758Z,100214.06
2023-01-29T17:24:37.288Z,100229.35
2023-01-29T17:25:47.490Z,100221.56
2023-01-29T17:28:14.173Z,100216.80
2023-01-29T17:30:44.682Z,100212.31
2023-01-29T17:31:55.607Z,100221.51
2023-01-29T17:33:16.686Z,100226.80
2023-01-29T17:34:27.744Z,100218.88
2023-01-29T17:35:36.262Z,100213.63
2023-01-29T17:36:45.524Z,100214.52
2023-01-29T17:42:00.889Z,100209.81
2023-01-29T17:43:11.224Z,100214.43
2023-01-29T17:45:36.416Z,100219.44
2023-01-29T17:46:45.868Z,100209.09
2023-01-29T17:47:54.515Z,100203.72
2023-01-29T17:50:27.313Z,100197.25
2023-01-29T17:51:37.131Z,100208.11
2023-01-29T17:52:46.169Z,100194.08
2023-01-29T17:53:54.777Z,100202.81
2023-01-29T17:55:04.431Z,100202.01
2023-01-29T21:52:04.097Z,100129.13
2023-01-29T21:53:14.268Z,100133.55
2023-01-29T21:54:27.708Z,100129.77
2023-01-29T21:55:36.474Z,100127.82
2023-01-29T21:56:45.713Z,100113.63
2023-01-29T21:57:55.538Z,100121.52
2023-01-29T21:59:04.267Z,100119.60
2023-01-29T22:00:14.548Z,100120.45
2023-01-29T22:01:36.595Z,100115.93
2023-01-29T22:02:34.612Z,100124.63
2023-01-29T22:03:46.944Z,100128.97
2023-01-29T22:05:05.291Z,100115.72
2023-01-29T22:06:09.088Z,100117.38
2023-01-29T22:07:18.025Z,100115.53
2023-01-29T22:08:26.590Z,100118.17
2023-01-29T22:09:36.136Z,100117.23
2023-01-29T22:10:46.064Z,100118.91
2023-01-29T22:11:54.776Z,100114.47
2023-01-29T22:13:03.605Z,100120.60
2023-01-29T22:14:13.099Z,100115.41
2023-01-29T22:15:23.883Z,100120.64
2023-01-29T22:16:33.404Z,100114.42
2023-01-29T22:17:43.342Z,100117.02
2023-01-29T22:18:51.876Z,100117.81
2023-01-29T22:20:01.621Z,100117.77
2023-01-29T22:21:11.134Z,100118.63
2023-01-29T22:22:20.765Z,100115.05
2023-01-29T22:23:30.974Z,100110.55
2023-01-29T22:26:04.891Z,100104.80
2023-01-29T22:27:15.461Z,100110.28
2023-01-29T22:28:24.608Z,100110.24
2023-01-29T22:29:33.428Z,100112.03
2023-01-29T22:30:44.378Z,100105.94
2023-01-29T22:31:53.832Z,100107.73
2023-01-29T22:33:02.539Z,100112.13
2023-01-29T22:35:51.773Z,100113.50
2023-01-29T22:37:01.604Z,100110.99
2023-01-29T22:38:10.709Z,100108.26
2023-01-29T22:39:19.711Z,100112.69
2023-01-29T22:40:28.559Z,100116.19
2023-01-29T22:41:37.565Z,100114.48
2023-01-29T22:44:10.127Z,100109.01
2023-01-29T22:46:53.917Z,100102.86
2023-01-29T22:48:04.960Z,100101.41
2023-01-29T22:49:15.167Z,100103.16
2023-01-29T22:50:24.730Z,100104.01
2023-01-29T22:51:34.498Z,100101.32
2023-01-29T22:54:09.020Z,100096.03
2023-01-29T22:55:18.749Z,100103.30
2023-01-29T22:56:31.398Z,100095.47
2023-01-29T22:57:40.962Z,100094.66
2023-01-29T23:00:10.632Z,100092.63
2023-01-29T23:01:21.418Z,100095.52
2023-01-29T23:02:30.560Z,100091.13
2023-01-29T23:04:54.234Z,100084.66
2023-01-29T23:07:38.401Z,100083.95
2023-01-29T23:08:49.300Z,100083.42
2023-01-29T23:09:57.673Z,100078.95
2023-01-29T23:11:15.471Z,100085.89
2023-01-29T23:12:31.899Z,100083.24
2023-01-29T23:15:10.484Z,100081.02
2023-01-29T23:16:22.060Z,100078.57
2023-01-29T23:17:31.530Z,100080.22
2023-01-29T23:19:57.440Z,100069.21
2023-01-29T23:21:07.324Z,100074.78
2023-01-29T23:22:17.863Z,100074.69
2023-01-29T23:23:30.660Z,100068.50
2023-01-29T23:24:40.424Z,100070.20
2023-01-29T23:26:07.265Z,100057.83
2023-01-29T23:27:16.365Z,100055.14
2023-01-29T23:28:26.195Z,100054.23
2023-01-29T23:29:36.047Z,100040.17
2023-01-29T23:30:45.967Z,100041.88
2023-01-29T23:31:55.375Z,100041.06
2023-01-29T23:34:21.648Z,100031.94
2023-01-29T23:35:30.956Z,100038.38
2023-01-29T23:36:40.383Z,100030.44
2023-01-29T23:37:49.047Z,100026.91
2023-01-29T23:38:57.626Z,100025.25
2023-01-29T23:40:08.883Z,100032.30
2023-01-29T23:42:32.886Z,100027.51
2023-01-29T23:43:42.538Z,100022.56
2023-01-29T23:44:52.219Z,100028.66
2023-01-29T23:46:02.522Z,100027.75
2023-01-29T23:47:12.305Z,100025.05
2023-01-29T23:48:23.225Z,100026.80
2023-01-29T23:49:32.132Z,100019.67
2023-01-29T23:50:43.401Z,100017.13
2023-01-29T23:51:52.747Z,100009.55
2023-01-29T23:53:01.792Z,100009.70
2023-01-29T23:54:10.875Z,100021.22
2023-01-29T23:55:20.549Z,100008.05
2023-01-29T23:56:30.117Z,100004.52
2023-01-29T23:57:38.983Z,100003.67
2023-01-29T23:58:50.791Z,100010.74
2023-01-29T23:59:59.670Z,100008.16
